KHMZ

Details ICAO KHMZ
Name BEDFORD CO
Region United States
Timezone America/New_York (UTC-5.0)
Plans Departing 0
Arriving 2
Stats Elevation 1,163 ft / 354 m (AMSL)
Location 40.086128° -78.513502°
Runways 1
Magnetic Variation 10.186° W
Sunrise 2017-12-14 12:29:54 UTC / 2017-12-14 07:29:54 Local
Sunset 2017-12-14 21:50:34 UTC / 2017-12-14 16:50:34 Local
Advertisement - Login to hide

Runways

ID Width Length Bearing (true) Bearing (mag) Surface Threshold Offset Overrun Length
14 75 ft / 23 m 5,002 ft / 1,525 m 127.70° 137.89° Asphalt 0 ft / 0 m 0 ft / 0 m
32 75 ft / 23 m 5,002 ft / 1,525 m 307.71° 317.90° Asphalt 0 ft / 0 m 0 ft / 0 m

Map

Weather


0- 5 10 15 20 25 30 35+ Temperature / ° C

Clouds and Precipitation
Forecast for 2017-12-14 18:00 UTC. Updated 14 minutes ago

Ground ~20,000 ft ~40,000 ft Winds

METAR

KHMZ 141335Z AUTO 31016G23KT 4SM -SN OVC030 M03/M08 A2976 RMK AO2 T10351085

TAF

Not found

Frequencies

Unicom 122.70 MHz UNICOM
Warning: Do not use this data for real-world aviation or navigation. No guarantee of current accuracy is given.